createdAt,value
2023-05-12T00:00:48.705Z,12.39
2023-05-12T00:01:48.702Z,12.42
2023-05-12T00:02:48.732Z,12.43
2023-05-12T00:03:48.955Z,12.36
2023-05-12T00:04:48.735Z,12.31
2023-05-12T00:05:48.667Z,12.29
2023-05-12T00:06:48.652Z,12.40
2023-05-12T00:07:48.647Z,12.32
2023-05-12T00:08:48.659Z,12.25
2023-05-12T00:09:48.647Z,12.31
2023-05-12T00:10:48.616Z,12.25
2023-05-12T00:11:49.627Z,12.28
2023-05-12T00:12:48.620Z,12.35
2023-05-12T00:13:48.665Z,12.32
2023-05-12T00:14:48.608Z,12.39
2023-05-12T00:15:48.598Z,12.32
2023-05-12T00:16:48.686Z,12.32
2023-05-12T00:17:48.678Z,12.36
2023-05-12T00:18:48.653Z,12.43
2023-05-12T00:19:48.564Z,12.39
2023-05-12T00:20:48.553Z,12.36
2023-05-12T00:21:48.558Z,12.37
2023-05-12T00:22:48.545Z,12.43
2023-05-12T00:23:48.565Z,12.47
2023-05-12T00:24:48.523Z,12.49
2023-05-12T00:25:48.529Z,12.47
2023-05-12T00:26:48.518Z,12.54
2023-05-12T00:27:48.520Z,12.53
2023-05-12T00:28:48.519Z,12.50
2023-05-12T00:29:48.497Z,12.45
2023-05-12T00:30:48.506Z,12.37
2023-05-12T00:31:48.503Z,12.39
2023-05-12T00:32:48.530Z,12.39
2023-05-12T00:33:48.464Z,12.42
2023-05-12T00:34:48.467Z,12.37
2023-05-12T00:35:48.447Z,12.31
2023-05-12T00:36:48.474Z,12.39
2023-05-12T00:37:48.466Z,12.37
2023-05-12T00:38:48.438Z,12.29
2023-05-12T00:39:48.426Z,12.45
2023-05-12T00:40:48.422Z,12.47
2023-05-12T00:41:48.444Z,12.43
2023-05-12T00:42:48.427Z,12.36
2023-05-12T00:43:49.403Z,12.37
2023-05-12T00:44:48.405Z,12.28
2023-05-12T00:45:48.417Z,12.29
2023-05-12T00:46:48.411Z,12.40
2023-05-12T00:47:48.504Z,12.43
2023-05-12T00:48:48.361Z,12.45
2023-05-12T00:49:48.372Z,12.43
2023-05-12T00:50:48.373Z,12.37
2023-05-12T00:51:48.364Z,12.31
2023-05-12T00:52:48.353Z,12.37
2023-05-12T00:53:50.375Z,12.37
2023-05-12T00:54:49.331Z,12.39
2023-05-12T00:55:48.349Z,12.40
2023-05-12T00:56:48.388Z,12.40
2023-05-12T00:57:48.314Z,12.22
2023-05-12T00:58:48.306Z,12.24
2023-05-12T00:59:48.314Z,12.15
2023-05-12T01:00:48.342Z,12.15
2023-05-12T01:01:48.305Z,12.20
2023-05-12T01:02:48.327Z,12.25
2023-05-12T01:03:48.308Z,12.32
2023-05-12T01:04:48.257Z,12.29
2023-05-12T01:05:48.273Z,12.35
2023-05-12T01:06:48.268Z,12.35
2023-05-12T01:07:48.248Z,12.32
2023-05-12T01:08:48.232Z,12.28
2023-05-12T01:09:48.232Z,12.22
2023-05-12T01:10:48.236Z,12.20
2023-05-12T01:11:48.219Z,12.32
2023-05-12T01:12:48.211Z,12.25
2023-05-12T01:13:48.203Z,12.22
2023-05-12T01:14:48.213Z,12.37
2023-05-12T01:15:48.191Z,12.36
2023-05-12T01:16:48.190Z,12.37
2023-05-12T01:17:48.223Z,12.37
2023-05-12T01:18:48.262Z,12.27
2023-05-12T01:19:48.168Z,12.21
2023-05-12T01:20:48.178Z,12.17
2023-05-12T01:21:48.139Z,12.13
2023-05-12T01:22:48.128Z,12.13
2023-05-12T01:23:48.148Z,11.86
2023-05-12T01:24:48.121Z,11.81
2023-05-12T01:25:48.109Z,11.70
2023-05-12T01:26:48.111Z,11.77
2023-05-12T01:27:49.093Z,11.73
2023-05-12T01:28:48.108Z,11.70
2023-05-12T01:29:48.118Z,11.78
2023-05-12T01:30:48.117Z,11.86
2023-05-12T01:31:48.330Z,11.70
2023-05-12T01:32:48.102Z,11.75
2023-05-12T01:33:48.073Z,11.69
2023-05-12T01:34:48.068Z,11.65
2023-05-12T01:35:48.054Z,11.78
2023-05-12T01:36:48.044Z,11.84
2023-05-12T01:37:48.018Z,11.87
2023-05-12T01:38:48.047Z,11.84
2023-05-12T01:39:48.028Z,11.83
2023-05-12T01:40:48.006Z,11.75
2023-05-12T01:41:48.006Z,11.77
2023-05-12T01:42:48.109Z,11.75
2023-05-12T01:43:48.063Z,11.81
2023-05-12T01:44:47.992Z,11.78
2023-05-12T01:45:48.915Z,11.90
2023-05-12T01:46:48.001Z,11.78
2023-05-12T01:47:47.990Z,11.81
2023-05-12T01:48:48.815Z,11.80
2023-05-12T01:49:47.976Z,11.95
2023-05-12T01:50:47.995Z,11.97
2023-05-12T01:51:48.030Z,11.97
2023-05-12T01:52:48.022Z,11.95
2023-05-12T01:53:48.012Z,11.97
2023-05-12T01:54:48.028Z,11.99
2023-05-12T01:55:47.891Z,12.02
2023-05-12T01:56:48.017Z,11.94
2023-05-12T01:57:48.061Z,11.97
2023-05-12T01:58:47.929Z,11.91
2023-05-12T01:59:47.921Z,11.91
2023-05-12T02:00:47.996Z,11.87
2023-05-12T02:01:48.122Z,11.83
2023-05-12T02:02:47.948Z,11.84
2023-05-12T02:03:48.111Z,11.78
2023-05-12T02:04:47.835Z,11.84
2023-05-12T02:05:47.847Z,11.91
2023-05-12T02:06:48.542Z,11.90
2023-05-12T02:07:47.962Z,11.86
2023-05-12T02:08:47.847Z,11.88
2023-05-12T02:09:47.860Z,11.81
2023-05-12T02:10:47.848Z,11.84
2023-05-12T02:11:47.776Z,11.97
2023-05-12T02:12:47.766Z,12.00
2023-05-12T02:13:47.761Z,11.87
2023-05-12T02:14:47.775Z,11.90
2023-05-12T02:15:47.748Z,11.81
2023-05-12T02:16:47.815Z,11.91
2023-05-12T02:17:47.825Z,11.80
2023-05-12T02:18:47.784Z,11.94
2023-05-12T02:19:47.722Z,11.83
2023-05-12T02:20:47.709Z,11.97
2023-05-12T02:21:47.744Z,11.94
2023-05-12T02:22:47.703Z,11.94
2023-05-12T02:23:47.702Z,11.97
2023-05-12T02:24:47.708Z,11.95
2023-05-12T02:25:47.682Z,11.99
2023-05-12T02:26:47.673Z,12.03
2023-05-12T02:27:47.676Z,12.02
2023-05-12T02:28:47.683Z,12.07
2023-05-12T02:29:47.978Z,11.97
2023-05-12T02:30:48.412Z,11.86
2023-05-12T02:31:48.539Z,11.81
2023-05-12T02:32:47.786Z,11.88
2023-05-12T02:33:48.442Z,11.81
2023-05-12T02:34:47.776Z,11.81
2023-05-12T02:35:47.731Z,11.95
2023-05-12T02:36:48.450Z,11.83
2023-05-12T02:37:47.753Z,11.86
2023-05-12T02:38:47.771Z,11.80
2023-05-12T02:39:47.696Z,11.78
2023-05-12T02:40:47.611Z,11.90
2023-05-12T02:41:47.752Z,11.86
2023-05-12T02:42:47.596Z,11.80
2023-05-12T02:43:47.667Z,11.86
2023-05-12T02:44:47.553Z,11.84
2023-05-12T02:45:48.001Z,11.83
2023-05-12T02:46:47.689Z,11.87
2023-05-12T02:47:48.465Z,11.90
2023-05-12T02:48:47.699Z,11.90
2023-05-12T02:49:48.564Z,11.86
2023-05-12T02:50:47.600Z,12.00
2023-05-12T02:51:47.572Z,11.94
2023-05-12T02:52:47.511Z,11.94
2023-05-12T02:53:47.587Z,11.84
2023-05-12T02:54:47.608Z,11.86
2023-05-12T02:55:47.474Z,11.87
2023-05-12T02:56:48.346Z,12.00
2023-05-12T02:57:47.681Z,11.94
2023-05-12T02:58:48.288Z,12.03
2023-05-12T02:59:48.268Z,11.99
2023-05-12T03:00:50.196Z,11.86
2023-05-12T03:01:49.502Z,11.87
2023-05-12T03:02:47.480Z,11.75
2023-05-12T03:03:47.628Z,11.70
2023-05-12T03:04:47.574Z,11.72
2023-05-12T03:05:47.524Z,11.70
2023-05-12T03:06:47.565Z,11.81
2023-05-12T03:07:47.466Z,11.81
2023-05-12T03:08:47.452Z,11.63
2023-05-12T03:09:47.496Z,11.80
2023-05-12T03:10:47.413Z,11.78
2023-05-12T03:11:47.429Z,11.80
2023-05-12T03:12:47.413Z,11.69
2023-05-12T03:13:47.436Z,11.84
2023-05-12T03:14:47.371Z,11.78
2023-05-12T03:15:47.395Z,11.78
2023-05-12T03:16:47.409Z,11.80
2023-05-12T03:17:47.571Z,11.72
2023-05-12T03:18:47.364Z,11.68
2023-05-12T03:19:47.338Z,11.66
2023-05-12T03:20:47.305Z,11.54
2023-05-12T03:21:47.292Z,11.60
2023-05-12T03:22:47.293Z,11.51
2023-05-12T03:23:47.281Z,11.50
2023-05-12T03:24:47.306Z,11.62
2023-05-12T03:25:47.250Z,11.51
2023-05-12T03:26:47.276Z,11.55
2023-05-12T03:27:47.243Z,11.54
2023-05-12T03:28:47.264Z,11.51
2023-05-12T03:29:47.259Z,11.37
2023-05-12T03:30:47.244Z,11.50
2023-05-12T03:31:47.260Z,11.48
2023-05-12T03:32:47.251Z,11.35
2023-05-12T03:33:47.254Z,11.51
2023-05-12T03:34:47.236Z,11.51
2023-05-12T03:35:47.206Z,11.55
2023-05-12T03:36:47.188Z,11.60
2023-05-12T03:37:47.189Z,11.63
2023-05-12T03:38:47.211Z,11.63
2023-05-12T03:39:47.178Z,11.57
2023-05-12T03:40:47.176Z,11.66
2023-05-12T03:41:47.150Z,11.68
2023-05-12T03:42:47.180Z,11.69
2023-05-12T03:43:47.162Z,11.80
2023-05-12T03:44:47.136Z,11.65
2023-05-12T03:45:47.137Z,11.62
2023-05-12T03:46:47.187Z,11.52
2023-05-12T03:47:47.180Z,11.62
2023-05-12T03:48:47.134Z,11.54
2023-05-12T03:49:47.097Z,11.60
2023-05-12T03:50:47.089Z,11.66
2023-05-12T03:51:48.084Z,11.68
2023-05-12T03:52:47.113Z,11.75
2023-05-12T03:53:47.068Z,11.72
2023-05-12T03:54:47.065Z,11.63
2023-05-12T03:55:47.059Z,11.55
2023-05-12T03:56:47.079Z,11.57
2023-05-12T03:57:47.057Z,11.54
2023-05-12T03:58:47.049Z,11.52
2023-05-12T03:59:47.025Z,11.52
2023-05-12T04:00:47.026Z,11.51
2023-05-12T04:01:47.087Z,11.51
2023-05-12T04:02:47.118Z,11.44
2023-05-12T04:03:47.115Z,11.47
2023-05-12T04:04:46.993Z,11.57
2023-05-12T04:05:47.002Z,11.72
2023-05-12T04:06:47.000Z,11.63
2023-05-12T04:07:46.981Z,11.72
2023-05-12T04:08:46.974Z,11.62
2023-05-12T04:09:46.968Z,11.72
2023-05-12T04:10:46.960Z,11.68
2023-05-12T04:11:47.470Z,11.66
2023-05-12T04:12:46.956Z,11.72
2023-05-12T04:13:46.947Z,11.72
2023-05-12T04:14:46.933Z,11.78
2023-05-12T04:15:46.957Z,11.77
2023-05-12T04:16:46.951Z,11.81
2023-05-12T04:17:46.918Z,11.81
2023-05-12T04:18:46.924Z,11.84
2023-05-12T04:19:46.903Z,11.90
2023-05-12T04:20:46.900Z,11.99
2023-05-12T04:21:46.890Z,11.88
2023-05-12T04:22:46.862Z,11.99
2023-05-12T04:23:46.860Z,12.04
2023-05-12T04:24:46.853Z,12.04
2023-05-12T04:25:46.862Z,12.07
2023-05-12T04:26:46.850Z,12.09
2023-05-12T04:27:46.829Z,12.10
2023-05-12T04:28:46.841Z,12.00
2023-05-12T04:29:46.852Z,12.00
2023-05-12T04:30:46.836Z,12.00
2023-05-12T04:31:46.866Z,12.04
2023-05-12T04:32:46.948Z,12.02
2023-05-12T04:33:48.229Z,12.00
2023-05-12T04:34:46.825Z,12.06
2023-05-12T04:35:46.797Z,11.99
2023-05-12T04:36:46.782Z,12.03
2023-05-12T04:37:46.764Z,12.07
2023-05-12T04:38:46.762Z,12.12
2023-05-12T04:39:46.770Z,12.07
2023-05-12T04:40:46.754Z,12.13
2023-05-12T04:41:46.740Z,12.09
2023-05-12T04:42:46.751Z,11.94
2023-05-12T04:44:47.744Z,12.09
2023-05-12T04:45:46.731Z,11.97
2023-05-12T04:46:46.703Z,11.99
2023-05-12T04:47:46.784Z,11.99
2023-05-12T04:48:46.749Z,12.20
2023-05-12T04:49:46.690Z,12.07
2023-05-12T04:50:46.675Z,12.24
2023-05-12T04:51:46.681Z,12.21
2023-05-12T04:52:46.657Z,12.28
2023-05-12T04:53:46.679Z,12.27
2023-05-12T04:54:46.653Z,12.32
2023-05-12T04:55:46.635Z,12.22
2023-05-12T04:56:46.710Z,12.20
2023-05-12T04:57:46.663Z,12.21
2023-05-12T04:58:46.638Z,12.25
2023-05-12T04:59:46.625Z,12.29
2023-05-12T05:00:46.608Z,12.37
2023-05-12T05:01:46.854Z,12.27
2023-05-12T05:02:46.698Z,12.31
2023-05-12T05:03:46.670Z,12.32
2023-05-12T05:04:46.590Z,12.35
2023-05-12T05:05:46.569Z,12.28
2023-05-12T05:06:47.564Z,12.24
2023-05-12T05:07:46.578Z,12.29
2023-05-12T05:08:46.549Z,12.22
2023-05-12T05:09:46.550Z,12.18
2023-05-12T05:10:46.552Z,12.25
2023-05-12T05:11:46.616Z,12.22
2023-05-12T05:12:46.534Z,12.28
2023-05-12T05:13:46.513Z,12.21
2023-05-12T05:14:48.932Z,12.22
2023-05-12T05:15:46.528Z,12.27
2023-05-12T05:16:46.530Z,12.32
2023-05-12T05:17:46.542Z,12.28
2023-05-12T05:18:46.678Z,12.32
2023-05-12T05:19:56.050Z,12.24
2023-05-12T05:20:56.041Z,12.25
2023-05-12T05:21:48.483Z,12.27
2023-05-12T05:22:46.461Z,12.20
2023-05-12T05:23:46.461Z,12.24
2023-05-12T05:24:46.549Z,12.27
2023-05-12T05:25:46.464Z,12.27
2023-05-12T05:26:46.457Z,12.37
2023-05-12T05:27:46.422Z,12.29
2023-05-12T05:28:46.418Z,12.27
2023-05-12T05:29:46.404Z,12.28
2023-05-12T05:30:46.445Z,12.28
2023-05-12T05:31:46.483Z,12.39
2023-05-12T05:32:46.412Z,12.40
2023-05-12T05:33:46.381Z,12.45
2023-05-12T05:34:46.378Z,12.50
2023-05-12T05:35:46.374Z,12.43
2023-05-12T05:36:46.367Z,12.45
2023-05-12T05:37:46.362Z,12.53
2023-05-12T05:38:46.334Z,12.55
2023-05-12T05:39:46.339Z,12.64
2023-05-12T05:40:53.566Z,12.65
2023-05-12T05:41:48.330Z,12.64
2023-05-12T05:42:46.317Z,12.70
2023-05-12T05:43:46.301Z,12.73
2023-05-12T05:44:46.347Z,12.80
2023-05-12T05:45:46.331Z,12.75
2023-05-12T05:46:46.343Z,12.93
2023-05-12T05:47:46.310Z,12.95
2023-05-12T05:48:46.278Z,13.08
2023-05-12T05:49:46.283Z,13.01
2023-05-12T05:50:46.250Z,12.87
2023-05-12T05:51:46.252Z,12.91
2023-05-12T05:52:46.252Z,12.87
2023-05-12T05:53:46.226Z,12.90
2023-05-12T05:54:46.936Z,12.97
2023-05-12T05:55:46.208Z,12.86
2023-05-12T05:56:46.227Z,12.90
2023-05-12T05:57:46.203Z,12.87
2023-05-12T05:58:46.275Z,12.95
2023-05-12T05:59:46.191Z,12.91
2023-05-12T06:00:46.195Z,12.95
2023-05-12T06:01:46.264Z,13.05
2023-05-12T06:02:46.605Z,13.18
2023-05-12T06:03:46.259Z,13.01
2023-05-12T06:04:46.753Z,13.03
2023-05-12T06:05:46.155Z,13.11
2023-05-12T06:06:46.138Z,13.04
2023-05-12T06:07:46.139Z,13.15
2023-05-12T06:08:46.166Z,13.13
2023-05-12T06:09:46.121Z,13.22
2023-05-12T06:10:46.149Z,13.11
2023-05-12T06:11:46.111Z,13.18
2023-05-12T06:12:46.106Z,13.11
2023-05-12T06:13:46.114Z,13.16
2023-05-12T06:14:46.089Z,13.12
2023-05-12T06:15:46.101Z,13.13
2023-05-12T06:16:46.128Z,13.12
2023-05-12T06:17:46.114Z,13.13
2023-05-12T06:18:46.096Z,13.15
2023-05-12T06:19:46.112Z,13.23
2023-05-12T06:20:46.045Z,13.19
2023-05-12T06:21:46.034Z,13.05
2023-05-12T06:22:46.059Z,13.13
2023-05-12T06:23:46.037Z,13.13
2023-05-12T06:24:46.050Z,13.03
2023-05-12T06:25:46.017Z,13.11
2023-05-12T06:26:46.020Z,13.03
2023-05-12T06:27:46.008Z,13.15
2023-05-12T06:28:45.997Z,13.11
2023-05-12T06:29:46.010Z,13.12
2023-05-12T06:30:45.987Z,13.08
2023-05-12T06:31:46.042Z,13.09
2023-05-12T06:32:46.007Z,13.13
2023-05-12T06:33:45.978Z,13.18
2023-05-12T06:34:45.966Z,13.27
2023-05-12T06:35:45.960Z,13.27
2023-05-12T06:36:45.972Z,13.27
2023-05-12T06:37:45.953Z,13.15
2023-05-12T06:38:45.950Z,13.22
2023-05-12T06:39:45.941Z,13.22
2023-05-12T06:40:45.932Z,13.27
2023-05-12T06:41:45.938Z,13.33
2023-05-12T06:42:45.910Z,13.44
2023-05-12T06:43:45.905Z,13.42
2023-05-12T06:44:45.910Z,13.50
2023-05-12T06:45:45.907Z,13.41
2023-05-12T06:46:46.025Z,13.31
2023-05-12T06:47:45.938Z,13.30
2023-05-12T06:48:45.885Z,13.28
2023-05-12T06:49:45.868Z,13.31
2023-05-12T06:50:45.932Z,13.33
2023-05-12T06:51:45.909Z,13.44
2023-05-12T06:52:45.834Z,13.46
2023-05-12T06:53:45.856Z,13.54
2023-05-12T06:54:45.876Z,13.68
2023-05-12T06:55:45.846Z,13.62
2023-05-12T06:56:45.843Z,13.68
2023-05-12T06:57:45.807Z,13.70
2023-05-12T06:58:45.834Z,13.72
2023-05-12T06:59:46.052Z,13.78
2023-05-12T07:00:45.794Z,13.70
2023-05-12T07:01:45.871Z,13.78
2023-05-12T07:02:45.783Z,13.99
2023-05-12T07:03:45.812Z,13.95
2023-05-12T07:04:45.775Z,13.95
2023-05-12T07:05:45.791Z,14.05
2023-05-12T07:06:45.747Z,14.17
2023-05-12T07:07:45.728Z,14.35
2023-05-12T07:08:45.739Z,14.53
2023-05-12T07:09:45.753Z,14.82
2023-05-12T07:10:45.712Z,14.96
2023-05-12T07:11:45.721Z,15.06
2023-05-12T07:12:45.705Z,15.35
2023-05-12T07:13:45.709Z,15.40
2023-05-12T07:14:45.696Z,15.57
2023-05-12T07:15:45.729Z,15.58
2023-05-12T07:16:45.674Z,15.76
2023-05-12T07:17:45.702Z,15.82
2023-05-12T07:18:45.704Z,15.90
2023-05-12T07:19:45.703Z,15.88
2023-05-12T07:20:45.652Z,15.95
2023-05-12T07:21:45.630Z,16.01
2023-05-12T07:22:45.633Z,15.86
2023-05-12T07:23:45.645Z,15.86
2023-05-12T07:24:45.617Z,15.98
2023-05-12T07:25:45.715Z,15.84
2023-05-12T07:26:45.619Z,15.86
2023-05-12T07:27:45.601Z,15.65
2023-05-12T07:28:45.600Z,15.36
2023-05-12T07:29:45.571Z,15.43
2023-05-12T07:30:45.570Z,15.42
2023-05-12T07:31:45.676Z,15.44
2023-05-12T07:32:45.623Z,15.57
2023-05-12T07:33:45.556Z,15.68
2023-05-12T07:34:45.546Z,15.82
2023-05-12T07:35:45.576Z,15.82
2023-05-12T07:36:45.542Z,15.94
2023-05-12T07:37:45.549Z,15.86
2023-05-12T07:38:45.525Z,15.84
2023-05-12T07:39:45.517Z,15.62
2023-05-12T07:40:45.510Z,15.59
2023-05-12T07:41:45.527Z,15.73
2023-05-12T07:42:45.497Z,15.75
2023-05-12T07:43:45.494Z,15.86
2023-05-12T07:44:45.483Z,15.98
2023-05-12T07:45:45.504Z,15.84
2023-05-12T07:46:45.511Z,16.09
2023-05-12T07:47:45.485Z,16.09
2023-05-12T07:48:45.445Z,16.15
2023-05-12T07:49:45.437Z,16.24
2023-05-12T07:50:45.455Z,16.28
2023-05-12T07:51:45.467Z,16.21
2023-05-12T07:52:45.412Z,16.20
2023-05-12T07:53:45.397Z,16.17
2023-05-12T07:54:45.425Z,16.24
2023-05-12T07:55:45.411Z,16.17
2023-05-12T07:56:45.397Z,16.17
2023-05-12T07:57:45.392Z,16.26
2023-05-12T07:58:47.364Z,16.31
2023-05-12T07:59:46.365Z,16.42
2023-05-12T08:00:45.372Z,16.49
2023-05-12T08:01:45.352Z,16.35
2023-05-12T08:02:45.466Z,16.41
2023-05-12T08:03:45.392Z,16.39
2023-05-12T08:04:45.366Z,16.46
2023-05-12T08:05:45.335Z,16.41
2023-05-12T08:06:45.329Z,16.35
2023-05-12T08:07:45.308Z,16.29
2023-05-12T08:08:45.294Z,16.36
2023-05-12T08:09:45.339Z,16.17
2023-05-12T08:10:45.319Z,16.09
2023-05-12T08:11:47.577Z,15.88
2023-05-12T08:12:46.274Z,15.91
2023-05-12T08:13:45.273Z,15.92
2023-05-12T08:14:45.273Z,16.09
2023-05-12T08:15:45.266Z,16.16
2023-05-12T08:16:45.312Z,16.21
2023-05-12T08:17:45.295Z,16.23
2023-05-12T08:18:45.260Z,16.15
2023-05-12T08:19:45.234Z,15.95
2023-05-12T08:20:45.226Z,15.90
2023-05-12T08:21:45.210Z,15.86
2023-05-12T08:22:45.211Z,15.83
2023-05-12T08:23:45.491Z,15.90
2023-05-12T08:24:45.467Z,16.05
2023-05-12T08:25:45.189Z,16.20
2023-05-12T08:26:45.191Z,16.47
2023-05-12T08:27:45.191Z,16.65
2023-05-12T08:28:45.224Z,16.71
2023-05-12T08:29:45.164Z,16.97
2023-05-12T08:30:45.249Z,17.02
2023-05-12T08:31:45.161Z,17.16
2023-05-12T08:32:45.167Z,17.24
2023-05-12T08:33:45.145Z,17.39
2023-05-12T08:34:45.128Z,17.49
2023-05-12T08:35:45.137Z,17.56
2023-05-12T08:36:45.102Z,17.52
2023-05-12T08:37:45.148Z,17.57
2023-05-12T08:38:45.108Z,17.72
2023-05-12T08:39:45.149Z,17.79
2023-05-12T08:40:45.090Z,17.92
2023-05-12T08:41:45.146Z,17.89
2023-05-12T08:42:45.114Z,18.01
2023-05-12T08:43:45.079Z,18.11
2023-05-12T08:44:45.044Z,18.03
2023-05-12T08:45:45.048Z,18.16
2023-05-12T08:46:45.081Z,18.19
2023-05-12T08:47:45.072Z,18.40
2023-05-12T08:48:45.057Z,18.55
2023-05-12T08:49:45.820Z,18.52
2023-05-12T08:50:45.022Z,18.60
2023-05-12T08:51:49.867Z,18.53
2023-05-12T08:52:46.022Z,18.49
2023-05-12T08:53:45.034Z,18.49
2023-05-12T08:54:54.939Z,18.68
2023-05-12T08:56:01.408Z,18.77
2023-05-12T08:57:46.056Z,18.55
2023-05-12T08:58:44.951Z,18.75
2023-05-12T08:59:44.970Z,18.81
2023-05-12T09:00:44.999Z,18.78
2023-05-12T09:01:44.984Z,18.78
2023-05-12T09:02:51.993Z,18.86
2023-05-12T09:03:46.912Z,19.08
2023-05-12T09:04:45.036Z,19.27
2023-05-12T09:05:44.921Z,19.44
2023-05-12T09:06:44.915Z,19.40
2023-05-12T09:07:44.887Z,19.62
2023-05-12T09:08:44.890Z,19.55
2023-05-12T09:09:44.875Z,19.70
2023-05-12T09:10:44.887Z,19.73
2023-05-12T09:11:44.950Z,19.63
2023-05-12T09:12:44.879Z,19.73
2023-05-12T09:13:44.852Z,19.79
2023-05-12T09:14:44.837Z,19.76
2023-05-12T09:15:44.862Z,20.04
2023-05-12T09:16:44.912Z,19.95
2023-05-12T09:17:44.873Z,19.94
2023-05-12T09:18:44.828Z,20.02
2023-05-12T09:19:44.825Z,19.89
2023-05-12T09:20:44.847Z,19.99
2023-05-12T09:21:44.784Z,19.92
2023-05-12T09:22:44.782Z,20.00
2023-05-12T09:23:44.768Z,20.13
2023-05-12T09:24:44.805Z,20.11
2023-05-12T09:25:44.775Z,20.09
2023-05-12T09:26:44.765Z,20.11
2023-05-12T09:27:45.076Z,20.19
2023-05-12T09:28:44.764Z,20.26
2023-05-12T09:29:55.552Z,20.28
2023-05-12T09:30:46.727Z,20.22
2023-05-12T09:31:44.757Z,19.95
2023-05-12T09:32:44.918Z,19.96
2023-05-12T09:33:44.727Z,19.77
2023-05-12T09:34:44.739Z,20.00
2023-05-12T09:35:44.695Z,19.96
2023-05-12T09:36:44.698Z,20.02
2023-05-12T09:37:44.689Z,20.02
2023-05-12T09:38:44.693Z,20.16
2023-05-12T09:39:44.691Z,20.18
2023-05-12T09:40:44.654Z,20.16
2023-05-12T09:41:44.668Z,19.96
2023-05-12T09:42:44.642Z,19.89
2023-05-12T09:43:44.659Z,19.84
2023-05-12T09:44:44.632Z,19.84
2023-05-12T09:45:44.654Z,19.94
2023-05-12T09:46:44.611Z,20.00
2023-05-12T09:47:44.651Z,20.03
2023-05-12T09:48:44.639Z,20.18
2023-05-12T09:49:44.606Z,20.16
2023-05-12T09:50:47.902Z,20.06
2023-05-12T09:51:45.587Z,20.19
2023-05-12T09:52:44.602Z,20.34
2023-05-12T09:53:44.582Z,20.39
2023-05-12T09:54:44.556Z,20.50
2023-05-12T09:55:44.601Z,20.59
2023-05-12T09:56:44.536Z,20.67
2023-05-12T09:57:44.572Z,20.92
2023-05-12T09:58:44.542Z,20.97
2023-05-12T09:59:44.695Z,21.06
2023-05-12T10:01:09.083Z,21.14
2023-05-12T10:01:46.708Z,21.24
2023-05-12T10:02:44.579Z,21.50
2023-05-12T10:03:44.495Z,21.66
2023-05-12T10:04:44.606Z,21.75
2023-05-12T10:05:44.481Z,20.70
2023-05-12T10:06:44.488Z,20.52
2023-05-12T10:07:44.488Z,21.00
2023-05-12T10:08:44.465Z,21.09
2023-05-12T10:09:44.447Z,21.21
2023-05-12T10:10:44.452Z,21.62
2023-05-12T10:11:44.459Z,22.07
2023-05-12T10:12:45.392Z,22.06
2023-05-12T10:13:44.654Z,22.43
2023-05-12T10:14:44.405Z,22.83
2023-05-12T10:15:44.413Z,22.94
2023-05-12T10:16:44.506Z,23.44
2023-05-12T10:17:44.465Z,23.71
2023-05-12T10:18:44.421Z,23.71
2023-05-12T10:19:44.401Z,23.86
2023-05-12T10:20:44.402Z,24.01
2023-05-12T10:21:44.384Z,24.23
2023-05-12T10:22:44.390Z,24.69
2023-05-12T10:23:44.358Z,24.50
2023-05-12T10:24:44.357Z,24.21
2023-05-12T10:25:44.384Z,24.66
2023-05-12T10:26:44.331Z,25.08
2023-05-12T10:27:44.363Z,25.32
2023-05-12T10:28:44.340Z,24.33
2023-05-12T10:29:44.312Z,23.61
2023-05-12T10:30:44.312Z,24.23
2023-05-12T10:31:44.354Z,24.51
2023-05-12T10:32:44.395Z,24.55
2023-05-12T10:33:44.288Z,24.76
2023-05-12T10:34:44.299Z,25.08
2023-05-12T10:35:44.730Z,25.14
2023-05-12T10:36:44.268Z,25.59
2023-05-12T10:37:44.266Z,25.60
2023-05-12T10:38:44.243Z,25.47
2023-05-12T10:39:44.256Z,25.54
2023-05-12T10:40:44.265Z,25.48
2023-05-12T10:41:44.224Z,25.04
2023-05-12T10:42:44.212Z,24.84
2023-05-12T10:43:44.246Z,24.91
2023-05-12T10:44:44.199Z,25.47
2023-05-12T10:45:44.192Z,25.66
2023-05-12T10:46:44.310Z,25.80
2023-05-12T10:47:44.390Z,25.87
2023-05-12T10:48:44.193Z,25.81
2023-05-12T10:49:44.182Z,25.59
2023-05-12T10:50:44.154Z,24.77
2023-05-12T10:51:44.157Z,24.85
2023-05-12T10:52:44.420Z,25.36
2023-05-12T10:53:50.167Z,25.85
2023-05-12T10:54:46.874Z,26.00
2023-05-12T10:55:44.442Z,26.33
2023-05-12T10:56:44.299Z,26.70
2023-05-12T10:57:44.610Z,26.90
2023-05-12T10:58:44.518Z,27.63
2023-05-12T10:59:44.520Z,27.47
2023-05-12T11:00:44.880Z,25.95
2023-05-12T11:01:44.396Z,25.96
2023-05-12T11:02:44.617Z,26.25
2023-05-12T11:03:44.998Z,26.71
2023-05-12T11:04:44.817Z,25.48
2023-05-12T11:05:44.274Z,24.81
2023-05-12T11:06:45.039Z,25.17
2023-05-12T11:07:44.195Z,25.14
2023-05-12T11:08:44.299Z,25.43
2023-05-12T11:09:56.791Z,25.47
2023-05-12T11:10:47.025Z,25.95
2023-05-12T11:11:45.504Z,26.36
2023-05-12T11:12:44.054Z,26.66
2023-05-12T11:13:44.003Z,26.47
2023-05-12T11:14:43.992Z,26.68
2023-05-12T11:15:44.058Z,26.81
2023-05-12T11:16:44.118Z,26.59
2023-05-12T11:17:43.971Z,26.83
2023-05-12T11:18:44.018Z,26.95
2023-05-12T11:19:43.980Z,26.75
2023-05-12T11:20:43.988Z,27.22
2023-05-12T11:21:43.962Z,27.05
2023-05-12T11:22:43.935Z,26.89
2023-05-12T11:23:43.930Z,27.27
2023-05-12T11:24:43.965Z,26.65
2023-05-12T11:25:44.387Z,26.85
2023-05-12T11:26:44.928Z,27.21
2023-05-12T11:27:43.917Z,27.26
2023-05-12T11:28:43.907Z,27.08
2023-05-12T11:29:43.886Z,27.21
2023-05-12T11:30:43.900Z,27.48
2023-05-12T11:31:43.953Z,27.58
2023-05-12T11:32:43.956Z,27.68
2023-05-12T11:33:43.865Z,27.42
2023-05-12T11:34:43.856Z,27.63
2023-05-12T11:35:43.924Z,27.49
2023-05-12T11:36:43.852Z,27.58
2023-05-12T11:37:43.851Z,27.36
2023-05-12T11:38:43.832Z,27.26
2023-05-12T11:39:43.846Z,27.29
2023-05-12T11:40:43.868Z,27.65
2023-05-12T11:41:43.816Z,28.42
2023-05-12T11:42:43.799Z,28.38
2023-05-12T11:43:43.812Z,27.90
2023-05-12T11:44:43.804Z,28.27
2023-05-12T11:45:43.807Z,29.04
2023-05-12T11:46:43.782Z,29.08
2023-05-12T11:47:43.794Z,29.27
2023-05-12T11:48:43.758Z,29.72
2023-05-12T11:49:43.819Z,29.02
2023-05-12T11:50:43.750Z,28.30
2023-05-12T11:51:43.754Z,27.30
2023-05-12T11:52:43.741Z,26.70
2023-05-12T11:53:43.744Z,25.98
2023-05-12T11:54:43.766Z,25.21
2023-05-12T11:55:43.721Z,24.70
2023-05-12T11:56:43.716Z,24.32
2023-05-12T11:57:43.704Z,23.96
2023-05-12T11:58:43.733Z,23.77
2023-05-12T11:59:43.695Z,23.43
2023-05-12T12:00:43.683Z,23.18
2023-05-12T12:01:43.681Z,23.12
2023-05-12T12:02:43.749Z,23.06
2023-05-12T12:03:43.736Z,22.96
2023-05-12T12:04:43.737Z,23.23
2023-05-12T12:05:43.656Z,23.34
2023-05-12T12:06:43.649Z,23.51
2023-05-12T12:07:43.681Z,23.74
2023-05-12T12:08:43.648Z,23.66
2023-05-12T12:09:43.628Z,23.66
2023-05-12T12:10:43.621Z,23.91
2023-05-12T12:11:43.598Z,24.10
2023-05-12T12:12:43.610Z,24.43
2023-05-12T12:13:43.605Z,24.55
2023-05-12T12:14:44.106Z,24.92
2023-05-12T12:15:43.599Z,25.18
2023-05-12T12:16:43.587Z,25.35
2023-05-12T12:17:43.648Z,25.62
2023-05-12T12:18:43.582Z,26.15
2023-05-12T12:19:43.574Z,25.83
2023-05-12T12:20:43.550Z,25.65
2023-05-12T12:21:43.580Z,25.50
2023-05-12T12:22:43.560Z,25.93
2023-05-12T12:23:50.776Z,25.85
2023-05-12T12:24:45.527Z,26.36
2023-05-12T12:25:43.543Z,26.37
2023-05-12T12:26:43.519Z,26.13
2023-05-12T12:27:43.499Z,25.98
2023-05-12T12:28:43.491Z,25.69
2023-05-12T12:29:43.501Z,25.54
2023-05-12T12:30:43.472Z,25.59
2023-05-12T12:31:43.602Z,25.07
2023-05-12T12:32:43.493Z,24.99
2023-05-12T12:33:43.459Z,24.78
2023-05-12T12:34:43.461Z,24.51
2023-05-12T12:35:43.470Z,24.38
2023-05-12T12:36:43.442Z,24.53
2023-05-12T12:37:43.439Z,24.36
2023-05-12T12:38:43.410Z,24.29
2023-05-12T12:39:43.465Z,24.23
2023-05-12T12:40:43.424Z,24.06
2023-05-12T12:41:43.394Z,23.87
2023-05-12T12:42:43.409Z,23.78
2023-05-12T12:43:43.405Z,23.71
2023-05-12T12:44:43.378Z,23.58
2023-05-12T12:45:43.388Z,23.51
2023-05-12T12:46:43.475Z,23.56
2023-05-12T12:47:43.379Z,23.66
2023-05-12T12:48:43.352Z,23.76
2023-05-12T12:49:43.378Z,23.58
2023-05-12T12:50:43.360Z,23.66
2023-05-12T12:51:46.818Z,23.62
2023-05-12T12:52:44.330Z,23.59
2023-05-12T12:53:43.314Z,23.36
2023-05-12T12:54:43.441Z,23.15